createdAt,value
2022-09-28T00:02:09.141Z,8.80
2022-09-28T00:04:35.867Z,8.80
2022-09-28T00:07:02.538Z,8.80
2022-09-28T00:09:29.256Z,8.80
2022-09-28T00:11:57.085Z,8.80
2022-09-28T00:14:23.784Z,8.80
2022-09-28T00:16:50.664Z,8.80
2022-09-28T00:19:17.783Z,8.80
2022-09-28T00:21:44.709Z,8.70
2022-09-28T00:24:19.010Z,8.70
2022-09-28T00:26:45.835Z,8.70
2022-09-28T00:29:12.483Z,8.70
2022-09-28T00:31:39.256Z,8.70
2022-09-28T00:34:05.971Z,8.70
2022-09-28T00:36:32.709Z,8.70
2022-09-28T00:38:59.390Z,8.70
2022-09-28T00:41:26.073Z,8.60
2022-09-28T00:43:53.011Z,8.60
2022-09-28T00:46:19.798Z,8.50
2022-09-28T00:48:46.490Z,8.50
2022-09-28T00:51:13.237Z,8.50
2022-09-28T00:53:39.891Z,8.50
2022-09-28T00:56:07.566Z,8.40
2022-09-28T00:58:34.383Z,8.40
2022-09-28T01:01:01.235Z,8.40
2022-09-28T01:03:27.981Z,8.40
2022-09-28T01:05:54.749Z,8.40
2022-09-28T01:08:21.531Z,8.40
2022-09-28T01:10:48.428Z,8.30
2022-09-28T01:13:19.340Z,8.30
2022-09-28T01:15:46.192Z,8.30
2022-09-28T01:18:13.593Z,8.30
2022-09-28T01:20:43.073Z,8.30
2022-09-28T01:23:13.064Z,8.20
2022-09-28T01:25:41.183Z,8.20
2022-09-28T01:28:07.870Z,8.20
2022-09-28T01:30:34.799Z,8.20
2022-09-28T01:33:01.508Z,8.20
2022-09-28T01:35:28.546Z,8.20
2022-09-28T01:37:55.449Z,8.20
2022-09-28T01:40:22.474Z,8.20
2022-09-28T01:42:49.400Z,8.20
2022-09-28T01:45:16.101Z,8.10
2022-09-28T01:47:42.842Z,8.10
2022-09-28T01:50:10.254Z,8.10
2022-09-28T01:52:41.117Z,8.00
2022-09-28T01:55:08.950Z,8.00
2022-09-28T01:57:35.854Z,8.00
2022-09-28T02:00:02.548Z,8.00
2022-09-28T02:02:40.915Z,8.00
2022-09-28T02:05:08.273Z,8.00
2022-09-28T02:07:34.941Z,8.00
2022-09-28T02:10:02.017Z,8.00
2022-09-28T02:12:29.033Z,7.90
2022-09-28T02:14:56.107Z,7.90
2022-09-28T02:17:22.847Z,7.90
2022-09-28T02:19:49.521Z,7.90
2022-09-28T02:22:23.263Z,7.90
2022-09-28T02:24:51.824Z,7.90
2022-09-28T02:27:23.551Z,7.90
2022-09-28T02:29:50.421Z,7.90
2022-09-28T02:32:17.082Z,7.90
2022-09-28T02:34:43.814Z,7.80
2022-09-28T02:37:10.508Z,7.80
2022-09-28T02:39:37.436Z,7.80
2022-09-28T02:42:04.181Z,7.80
2022-09-28T02:44:30.860Z,7.80
2022-09-28T02:46:57.544Z,7.70
2022-09-28T02:49:29.236Z,7.70
2022-09-28T02:51:56.153Z,7.70
2022-09-28T02:54:22.896Z,7.70
2022-09-28T02:56:49.633Z,7.70
2022-09-28T02:59:16.644Z,7.70
2022-09-28T03:01:43.664Z,7.70
2022-09-28T03:04:10.369Z,7.60
2022-09-28T03:06:38.041Z,7.60
2022-09-28T03:09:04.822Z,7.60
2022-09-28T03:11:34.014Z,7.60
2022-09-28T03:14:01.671Z,7.60
2022-09-28T03:16:38.747Z,7.60
2022-09-28T03:19:05.480Z,7.50
2022-09-28T03:21:32.235Z,7.50
2022-09-28T03:23:59.265Z,7.50
2022-09-28T03:26:25.978Z,7.50
2022-09-28T03:28:52.736Z,7.50
2022-09-28T03:31:23.402Z,7.50
2022-09-28T03:33:50.178Z,7.50
2022-09-28T03:36:16.953Z,7.40
2022-09-28T03:38:43.771Z,7.40
2022-09-28T03:41:11.086Z,7.40
2022-09-28T03:43:40.853Z,7.40
2022-09-28T03:46:07.726Z,7.40
2022-09-28T03:48:39.843Z,7.40
2022-09-28T03:51:09.319Z,7.40
2022-09-28T03:53:36.189Z,7.40
2022-09-28T03:56:03.051Z,7.30
2022-09-28T03:58:31.613Z,7.30
2022-09-28T04:00:58.426Z,7.30
2022-09-28T04:03:25.617Z,7.30
2022-09-28T04:05:52.760Z,7.20
2022-09-28T04:08:19.500Z,7.20
2022-09-28T04:10:46.285Z,7.20
2022-09-28T04:13:13.017Z,7.20
2022-09-28T04:15:41.070Z,7.20
2022-09-28T04:18:07.743Z,7.10
2022-09-28T04:20:48.320Z,7.10
2022-09-28T04:23:15.096Z,7.10
2022-09-28T04:25:45.891Z,7.10
2022-09-28T04:28:31.372Z,7.10
2022-09-28T04:30:58.560Z,7.10
2022-09-28T04:33:25.348Z,7.00
2022-09-28T04:35:52.090Z,7.10
2022-09-28T04:38:35.654Z,7.00
2022-09-28T04:41:06.129Z,7.00
2022-09-28T04:43:33.134Z,7.00
2022-09-28T04:46:00.540Z,7.00
2022-09-28T04:48:32.374Z,7.00
2022-09-28T04:51:12.977Z,7.00
2022-09-28T04:53:39.746Z,7.00
2022-09-28T04:56:06.544Z,6.90
2022-09-28T04:58:33.306Z,6.90
2022-09-28T05:01:00.132Z,6.90
2022-09-28T05:03:45.585Z,6.90
2022-09-28T05:06:27.956Z,6.90
2022-09-28T05:09:00.314Z,6.90
2022-09-28T05:11:27.199Z,6.90
2022-09-28T05:13:54.042Z,6.90
2022-09-28T05:16:20.808Z,6.90
2022-09-28T05:19:07.843Z,6.90
2022-09-28T05:21:34.644Z,6.90
2022-09-28T05:24:07.413Z,6.90
2022-09-28T05:26:36.154Z,6.90
2022-09-28T05:29:02.905Z,6.90
2022-09-28T05:31:47.982Z,6.90
2022-09-28T05:34:26.870Z,6.90
2022-09-28T05:36:54.485Z,6.90
2022-09-28T05:39:21.313Z,6.90
2022-09-28T05:41:48.222Z,6.80
2022-09-28T05:44:15.067Z,6.90
2022-09-28T05:46:42.016Z,6.80
2022-09-28T05:49:10.163Z,6.80
2022-09-28T05:51:37.504Z,6.80
2022-09-28T05:54:06.118Z,6.80
2022-09-28T05:56:35.650Z,6.70
2022-09-28T05:59:06.249Z,6.80
2022-09-28T06:01:33.167Z,6.70
2022-09-28T06:04:01.491Z,6.70
2022-09-28T06:06:28.183Z,6.70
2022-09-28T06:08:56.221Z,6.70
2022-09-28T06:11:48.432Z,6.70
2022-09-28T06:14:30.059Z,6.70
2022-09-28T06:16:56.830Z,6.70
2022-09-28T06:19:23.565Z,6.70
2022-09-28T06:22:05.784Z,6.80
2022-09-28T06:24:37.630Z,6.70
2022-09-28T06:27:04.540Z,6.70
2022-09-28T06:29:31.378Z,6.70
2022-09-28T06:31:58.149Z,6.80
2022-09-28T06:34:25.261Z,6.80
2022-09-28T06:36:52.639Z,6.80
2022-09-28T06:39:19.423Z,6.80
2022-09-28T06:41:46.286Z,6.90
2022-09-28T06:44:15.856Z,6.90
2022-09-28T06:47:05.448Z,7.00
2022-09-28T06:49:51.315Z,7.00
2022-09-28T06:52:20.615Z,7.10
2022-09-28T06:55:13.579Z,7.10
2022-09-28T06:57:44.397Z,7.10
2022-09-28T07:00:11.280Z,7.20
2022-09-28T07:02:38.042Z,7.20
2022-09-28T07:05:15.779Z,7.20
2022-09-28T07:07:57.634Z,7.30
2022-09-28T07:10:44.635Z,7.30
2022-09-28T07:13:48.500Z,7.30
2022-09-28T07:16:19.627Z,7.40
2022-09-28T07:18:48.505Z,7.40
2022-09-28T07:21:26.080Z,7.40
2022-09-28T07:23:55.501Z,7.40
2022-09-28T07:26:25.990Z,7.50
2022-09-28T07:29:01.627Z,7.60
2022-09-28T07:31:41.387Z,7.60
2022-09-28T07:34:26.544Z,7.60
2022-09-28T07:37:00.668Z,7.70
2022-09-28T07:39:28.200Z,7.80
2022-09-28T07:41:59.681Z,7.80
2022-09-28T07:44:29.869Z,7.80
2022-09-28T07:46:57.659Z,7.90
2022-09-28T07:49:36.162Z,7.90
2022-09-28T07:52:14.832Z,7.90
2022-09-28T07:55:07.208Z,8.00
2022-09-28T07:58:09.703Z,8.00
2022-09-28T08:01:17.735Z,8.10
2022-09-28T08:03:45.299Z,8.10
2022-09-28T08:06:12.775Z,8.10
2022-09-28T08:08:44.646Z,8.20
2022-09-28T08:11:13.262Z,8.30
2022-09-28T08:14:03.933Z,8.40
2022-09-28T08:17:05.818Z,8.40
2022-09-28T08:20:00.320Z,8.50
2022-09-28T08:22:32.202Z,8.50
2022-09-28T08:24:59.987Z,8.60
2022-09-28T08:27:26.709Z,8.60
2022-09-28T08:29:53.859Z,8.70
2022-09-28T08:32:44.277Z,8.70
2022-09-28T08:35:29.275Z,8.70
2022-09-28T08:38:11.351Z,8.80
2022-09-28T08:41:06.626Z,8.90
2022-09-28T08:43:53.639Z,8.90
2022-09-28T08:46:31.552Z,9.00
2022-09-28T08:49:26.506Z,9.10
2022-09-28T08:52:06.706Z,9.20
2022-09-28T08:54:51.745Z,9.20
2022-09-28T08:57:29.661Z,9.30
2022-09-28T08:59:56.985Z,9.40
2022-09-28T09:02:29.149Z,9.50
2022-09-28T09:05:10.216Z,9.60
2022-09-28T09:07:46.378Z,9.70
2022-09-28T09:10:14.817Z,9.80
2022-09-28T09:12:42.762Z,9.90
2022-09-28T09:15:09.488Z,9.90
2022-09-28T09:17:36.249Z,10.10
2022-09-28T09:20:28.918Z,10.20
2022-09-28T09:23:11.652Z,10.30
2022-09-28T09:25:38.791Z,10.40
2022-09-28T09:28:08.021Z,10.50
2022-09-28T09:30:34.804Z,10.60
2022-09-28T09:33:02.625Z,10.70
2022-09-28T09:35:31.586Z,10.80
2022-09-28T09:38:07.820Z,10.90
2022-09-28T09:40:53.694Z,11.10
2022-09-28T09:43:43.345Z,11.20
2022-09-28T09:46:28.379Z,11.30
2022-09-28T09:49:15.961Z,11.40
2022-09-28T09:51:42.830Z,11.50
2022-09-28T09:54:09.503Z,11.50
2022-09-28T09:56:36.316Z,11.60
2022-09-28T09:59:18.111Z,11.60
2022-09-28T10:02:07.728Z,11.60
2022-09-28T10:04:43.256Z,11.70
2022-09-28T10:07:18.103Z,11.70
2022-09-28T10:09:45.949Z,11.70
2022-09-28T10:12:31.199Z,11.80
2022-09-28T10:14:59.382Z,11.80
2022-09-28T10:17:28.267Z,11.80
2022-09-28T10:20:15.906Z,11.90
2022-09-28T10:23:03.172Z,12.00
2022-09-28T10:25:30.085Z,12.10
2022-09-28T10:27:56.857Z,12.10
2022-09-28T10:30:23.685Z,12.10
2022-09-28T10:32:50.497Z,12.10
2022-09-28T10:35:17.608Z,12.10
2022-09-28T10:37:46.177Z,12.10
2022-09-28T10:40:30.514Z,12.10
2022-09-28T10:42:58.866Z,12.10
2022-09-28T10:45:25.622Z,12.10
2022-09-28T10:47:52.388Z,12.20
2022-09-28T10:50:20.118Z,12.30
2022-09-28T10:52:47.343Z,12.40
2022-09-28T10:55:36.903Z,12.50
2022-09-28T10:58:04.129Z,12.70
2022-09-28T11:00:40.677Z,12.70
2022-09-28T11:03:13.813Z,12.70
2022-09-28T11:05:43.269Z,12.70
2022-09-28T11:08:09.987Z,12.70
2022-09-28T11:10:45.878Z,12.80
2022-09-28T11:13:14.253Z,12.80
2022-09-28T11:15:45.735Z,12.90
2022-09-28T11:18:22.545Z,12.90
2022-09-28T11:20:49.804Z,12.90
2022-09-28T11:23:17.591Z,13.10
2022-09-28T11:25:45.271Z,13.00
2022-09-28T11:28:12.188Z,13.00
2022-09-28T11:30:40.660Z,13.00
2022-09-28T11:33:33.540Z,13.00
2022-09-28T11:36:09.274Z,13.00
2022-09-28T11:38:36.144Z,13.10
2022-09-28T11:41:22.981Z,13.10
2022-09-28T11:43:50.725Z,13.20
2022-09-28T11:46:17.539Z,13.20
2022-09-28T11:48:45.335Z,13.30
2022-09-28T11:51:12.288Z,13.30
2022-09-28T11:53:39.037Z,13.30
2022-09-28T11:56:08.822Z,13.30
2022-09-28T11:58:36.138Z,13.30
2022-09-28T12:01:04.318Z,13.20
2022-09-28T12:03:50.879Z,13.30
2022-09-28T12:06:17.729Z,13.30
2022-09-28T12:08:44.855Z,13.40
2022-09-28T12:11:43.922Z,13.50
2022-09-28T12:14:22.376Z,13.60
2022-09-28T12:17:07.147Z,13.70
2022-09-28T12:19:34.561Z,13.80
2022-09-28T12:22:01.271Z,13.80
2022-09-28T12:24:28.112Z,13.70
2022-09-28T12:26:54.775Z,13.80
2022-09-28T12:29:21.461Z,13.80
2022-09-28T12:31:48.215Z,13.90
2022-09-28T12:34:15.141Z,14.00
2022-09-28T12:36:41.864Z,14.10
2022-09-28T12:39:18.979Z,14.10
2022-09-28T12:41:50.087Z,14.20
2022-09-28T12:44:17.565Z,14.30
2022-09-28T12:46:45.911Z,14.30
2022-09-28T12:50:01.834Z,14.30
2022-09-28T12:52:02.490Z,14.30
2022-09-28T12:54:30.558Z,14.30
2022-09-28T12:56:58.161Z,14.40
2022-09-28T12:59:25.297Z,14.40
2022-09-28T13:01:52.124Z,14.40
2022-09-28T13:04:18.888Z,14.40
2022-09-28T13:06:45.533Z,14.40
2022-09-28T13:09:13.305Z,14.40
2022-09-28T13:11:41.214Z,14.50
2022-09-28T13:14:08.098Z,14.50
2022-09-28T13:16:34.809Z,14.50
2022-09-28T13:19:01.444Z,14.50
2022-09-28T13:21:28.478Z,14.50
2022-09-28T13:24:00.833Z,14.50
2022-09-28T13:26:37.099Z,14.60
2022-09-28T13:29:04.377Z,14.60
2022-09-28T13:31:33.155Z,14.80
2022-09-28T13:34:01.626Z,14.80
2022-09-28T13:36:28.371Z,14.80
2022-09-28T13:38:55.088Z,14.70
2022-09-28T13:41:21.837Z,14.60
2022-09-28T13:43:49.111Z,14.50
2022-09-28T13:46:15.825Z,14.50
2022-09-28T13:48:44.461Z,14.50
2022-09-28T13:51:11.137Z,14.40
2022-09-28T13:53:39.557Z,14.30
2022-09-28T13:56:06.415Z,14.30
2022-09-28T13:58:33.101Z,14.30
2022-09-28T14:01:00.060Z,14.30
2022-09-28T14:03:26.761Z,14.30
2022-09-28T14:05:53.431Z,14.30
2022-09-28T14:08:20.941Z,14.20
2022-09-28T14:10:49.880Z,14.20
2022-09-28T14:13:17.876Z,14.20
2022-09-28T14:15:44.829Z,14.30
2022-09-28T14:18:11.611Z,14.30
2022-09-28T14:20:38.239Z,14.30
2022-09-28T14:23:05.472Z,14.30
2022-09-28T14:25:32.124Z,14.40
2022-09-28T14:27:58.788Z,14.30
2022-09-28T14:30:25.763Z,14.30
2022-09-28T14:32:52.370Z,14.40
2022-09-28T14:35:19.106Z,14.50
2022-09-28T14:38:04.747Z,14.50
2022-09-28T14:40:50.270Z,14.50
2022-09-28T14:43:17.132Z,14.60
2022-09-28T14:45:45.833Z,14.60
2022-09-28T14:48:12.646Z,14.60
2022-09-28T14:50:39.503Z,14.60
2022-09-28T14:53:06.265Z,14.70
2022-09-28T14:55:33.013Z,14.80
2022-09-28T14:57:59.713Z,14.90
2022-09-28T15:00:26.591Z,14.90
2022-09-28T15:02:53.366Z,14.80
2022-09-28T15:05:20.198Z,14.80
2022-09-28T15:07:47.990Z,14.80
2022-09-28T15:10:15.750Z,14.80
2022-09-28T15:12:42.845Z,14.80
2022-09-28T15:15:09.471Z,14.80
2022-09-28T15:17:39.709Z,14.70
2022-09-28T15:20:07.222Z,14.70
2022-09-28T15:22:33.943Z,14.70
2022-09-28T15:25:02.731Z,14.60
2022-09-28T15:27:29.784Z,14.60
2022-09-28T15:29:56.577Z,14.50
2022-09-28T15:32:23.262Z,14.40
2022-09-28T15:34:52.877Z,14.40
2022-09-28T15:37:21.997Z,14.30
2022-09-28T15:39:48.669Z,14.20
2022-09-28T15:42:16.635Z,14.10
2022-09-28T15:44:45.841Z,14.00
2022-09-28T15:47:14.052Z,14.00
2022-09-28T15:49:41.685Z,13.90
2022-09-28T15:52:08.384Z,13.80
2022-09-28T15:54:35.282Z,13.80
2022-09-28T15:57:02.628Z,13.80
2022-09-28T15:59:30.782Z,13.80
2022-09-28T16:01:57.476Z,13.70
2022-09-28T16:04:24.179Z,13.70
2022-09-28T16:06:55.680Z,13.60
2022-09-28T16:09:22.490Z,13.60
2022-09-28T16:11:50.824Z,13.60
2022-09-28T16:14:17.484Z,13.50
2022-09-28T16:16:46.564Z,13.50
2022-09-28T16:19:13.527Z,13.50
2022-09-28T16:21:40.264Z,13.50
2022-09-28T16:24:08.589Z,13.40
2022-09-28T16:26:35.273Z,13.40
2022-09-28T16:29:02.312Z,13.40
2022-09-28T16:31:29.340Z,13.40
2022-09-28T16:33:56.110Z,13.40
2022-09-28T16:36:22.840Z,13.40
2022-09-28T16:38:49.539Z,13.40
2022-09-28T16:41:19.507Z,13.30
2022-09-28T16:43:46.229Z,13.30
2022-09-28T16:46:13.292Z,13.30
2022-09-28T16:48:40.147Z,13.30
2022-09-28T16:51:06.839Z,13.30
2022-09-28T16:53:51.991Z,13.30
2022-09-28T16:56:18.703Z,13.30
2022-09-28T16:58:48.167Z,13.30
2022-09-28T17:01:15.066Z,13.20
2022-09-28T17:03:46.742Z,13.20
2022-09-28T17:06:13.496Z,13.20
2022-09-28T17:08:40.146Z,13.20
2022-09-28T17:11:15.967Z,13.20
2022-09-28T17:13:45.908Z,13.10
2022-09-28T17:16:12.668Z,13.10
2022-09-28T17:18:40.020Z,13.00
2022-09-28T17:21:06.713Z,13.00
2022-09-28T17:23:33.434Z,13.00
2022-09-28T17:26:00.117Z,12.90
2022-09-28T17:28:26.837Z,12.90
2022-09-28T17:30:53.660Z,12.90
2022-09-28T17:33:20.393Z,12.80
2022-09-28T17:35:47.241Z,12.80
2022-09-28T17:38:13.969Z,12.70
2022-09-28T17:40:40.695Z,12.70
2022-09-28T17:43:07.450Z,12.70
2022-09-28T17:45:35.914Z,12.60
2022-09-28T17:48:02.668Z,12.60
2022-09-28T17:50:29.768Z,12.50
2022-09-28T17:52:57.838Z,12.50
2022-09-28T17:55:24.605Z,12.40
2022-09-28T17:57:51.560Z,12.40
2022-09-28T18:00:18.274Z,12.30
2022-09-28T18:02:45.123Z,12.30
2022-09-28T18:05:13.504Z,12.20
2022-09-28T18:07:44.206Z,12.20
2022-09-28T18:10:13.896Z,12.10
2022-09-28T18:12:40.598Z,12.10
2022-09-28T18:15:07.307Z,12.00
2022-09-28T18:17:34.028Z,12.00
2022-09-28T18:20:00.726Z,12.00
2022-09-28T18:22:27.521Z,11.90
2022-09-28T18:24:54.176Z,11.90
2022-09-28T18:27:20.877Z,11.80
2022-09-28T18:29:47.588Z,11.80
2022-09-28T18:32:14.344Z,11.80
2022-09-28T18:34:41.232Z,11.70
2022-09-28T18:37:08.002Z,11.70
2022-09-28T18:39:34.713Z,11.60
2022-09-28T18:42:02.313Z,11.60
2022-09-28T18:44:28.969Z,11.50
2022-09-28T18:46:55.630Z,11.50
2022-09-28T18:49:22.465Z,11.40
2022-09-28T18:51:49.291Z,11.40
2022-09-28T18:54:16.166Z,11.30
2022-09-28T18:56:42.973Z,11.30
2022-09-28T18:59:12.100Z,11.20
2022-09-28T19:01:39.051Z,11.20
2022-09-28T19:04:05.759Z,11.10
2022-09-28T19:06:32.789Z,11.10
2022-09-28T19:08:59.670Z,11.00
2022-09-28T19:11:26.405Z,11.00
2022-09-28T19:13:53.150Z,11.00
2022-09-28T19:16:20.884Z,10.90
2022-09-28T19:18:47.628Z,10.90
2022-09-28T19:21:14.360Z,10.80
2022-09-28T19:23:41.874Z,10.70
2022-09-28T19:26:10.541Z,10.70
2022-09-28T19:28:37.378Z,10.70
2022-09-28T19:31:04.075Z,10.70
2022-09-28T19:33:30.819Z,10.60
2022-09-28T19:35:57.510Z,10.60
2022-09-28T19:38:24.206Z,10.50
2022-09-28T19:40:50.958Z,10.50
2022-09-28T19:43:21.203Z,10.40
2022-09-28T19:45:52.086Z,10.40
2022-09-28T19:48:19.013Z,10.40
2022-09-28T19:50:46.284Z,10.30
2022-09-28T19:53:13.132Z,10.30
2022-09-28T19:55:40.930Z,10.20
2022-09-28T19:58:07.977Z,10.20
2022-09-28T20:00:34.667Z,10.20
2022-09-28T20:03:01.430Z,10.10
2022-09-28T20:05:28.359Z,10.10
2022-09-28T20:07:55.056Z,10.10
2022-09-28T20:10:21.807Z,10.00
2022-09-28T20:12:48.513Z,10.00
2022-09-28T20:15:16.656Z,10.00
2022-09-28T20:17:43.337Z,9.90
2022-09-28T20:20:09.995Z,9.90
2022-09-28T20:22:37.103Z,9.90
2022-09-28T20:25:03.948Z,9.90
2022-09-28T20:27:30.627Z,9.90
2022-09-28T20:29:57.430Z,9.80
2022-09-28T20:32:24.037Z,9.80
2022-09-28T20:34:50.770Z,9.80
2022-09-28T20:37:17.634Z,9.80
2022-09-28T20:39:45.193Z,9.70
2022-09-28T20:42:12.000Z,9.70
2022-09-28T20:44:38.742Z,9.60
2022-09-28T20:47:05.446Z,9.60
2022-09-28T20:49:32.178Z,9.60
2022-09-28T20:51:58.831Z,9.50
2022-09-28T20:54:25.702Z,9.50
2022-09-28T20:56:52.384Z,9.50
2022-09-28T20:59:20.337Z,9.50
2022-09-28T21:01:47.108Z,9.40
2022-09-28T21:04:13.855Z,9.40
2022-09-28T21:06:40.584Z,9.40
2022-09-28T21:09:07.250Z,9.30
2022-09-28T21:11:35.619Z,9.30
2022-09-28T21:14:02.613Z,9.30
2022-09-28T21:16:29.297Z,9.20
2022-09-28T21:18:55.967Z,9.20
2022-09-28T21:21:22.659Z,9.20
2022-09-28T21:23:49.422Z,9.20
2022-09-28T21:26:16.307Z,9.10
2022-09-28T21:28:44.799Z,9.10
2022-09-28T21:31:11.758Z,9.10
2022-09-28T21:33:38.550Z,9.00
2022-09-28T21:36:05.195Z,9.00
2022-09-28T21:38:31.884Z,9.00
2022-09-28T21:40:58.662Z,8.90
2022-09-28T21:43:25.441Z,8.90
2022-09-28T21:45:52.215Z,8.90
2022-09-28T21:48:18.992Z,8.80
2022-09-28T21:50:45.674Z,8.80
2022-09-28T21:53:12.981Z,8.80
2022-09-28T21:55:39.671Z,8.80
2022-09-28T21:58:06.403Z,8.80
2022-09-28T22:00:33.100Z,8.80
2022-09-28T22:02:59.871Z,8.80
2022-09-28T22:05:27.144Z,8.70
2022-09-28T22:07:53.851Z,8.70
2022-09-28T22:10:20.528Z,8.70
2022-09-28T22:12:47.313Z,8.70
2022-09-28T22:15:14.008Z,8.70
2022-09-28T22:17:40.774Z,8.70
2022-09-28T22:20:07.468Z,8.60
2022-09-28T22:22:34.214Z,8.50
2022-09-28T22:25:01.073Z,8.50
2022-09-28T22:27:27.784Z,8.50
2022-09-28T22:29:54.480Z,8.50
2022-09-28T22:32:23.760Z,8.50
2022-09-28T22:34:50.455Z,8.40
2022-09-28T22:37:17.228Z,8.40
2022-09-28T22:39:47.393Z,8.40
2022-09-28T22:42:14.640Z,8.30
2022-09-28T22:44:44.862Z,8.30
2022-09-28T22:47:11.565Z,8.30
2022-09-28T22:49:38.277Z,8.20
2022-09-28T22:52:04.961Z,8.20
2022-09-28T22:54:31.714Z,8.20
2022-09-28T22:56:58.390Z,8.20
2022-09-28T22:59:25.292Z,8.20
2022-09-28T23:01:52.037Z,8.20
2022-09-28T23:04:18.776Z,8.10
2022-09-28T23:06:45.789Z,8.10
2022-09-28T23:09:12.415Z,8.10
2022-09-28T23:11:39.064Z,8.00
2022-09-28T23:14:06.640Z,8.00
2022-09-28T23:16:33.375Z,7.90
2022-09-28T23:19:00.156Z,7.90
2022-09-28T23:21:26.864Z,7.80
2022-09-28T23:23:53.538Z,7.80
2022-09-28T23:26:20.408Z,7.70
2022-09-28T23:28:47.106Z,7.70
2022-09-28T23:31:13.881Z,7.70
2022-09-28T23:33:40.687Z,7.70
2022-09-28T23:36:07.340Z,7.80
2022-09-28T23:38:33.993Z,7.80
2022-09-28T23:41:00.848Z,7.70
2022-09-28T23:43:27.521Z,7.70
2022-09-28T23:45:54.197Z,7.70
2022-09-28T23:48:20.906Z,7.70
2022-09-28T23:50:47.660Z,7.70
2022-09-28T23:53:14.441Z,7.60
2022-09-28T23:55:41.161Z,7.60
2022-09-28T23:58:07.850Z,7.60
